CheckWX is a tool to help pilots better visualize weather data.  It is not intended as a substitute for an official pre-flight weather briefing.

16:57:06 UTC

ZBYN TAF
Taiyuan Wusu Airport
Taiyuan, China
TAF ZBYN 180901Z 1812/1912 09004MPS 6000 NSC TX33/1907Z TN19/1821Z

Jun-18@
12:00 UTC

Jun-18 @ 12:00 UTC

Jun-19@
12:00 UTC

Jun-19 @ 12:00 UTC

TAF ZBYN 180901Z 1812/1912 09004MPS 6000 NSC TX33/1907Z TN19/1821Z
Wind
  • 090° at 8 KTS
Cloud Levels
  • No significant clouds